Time;durP1;ratioP1;P1;durP2;ratioP2;P2;SDS_P1;SDS_P2;PMS_P1;PMS_P2;Temp;Humidity;BMP_temperature;BMP_pressure;BME280_temperature;BME280_humidity;BME280_pressure;Samples;Min_cycle;Max_cycle;Signal;HPM_P1;HPM_P2
2023/11/17 00:01:17;;;;;;;1.80;1.42;;;;;;;-1.18;72.50;99040.16;5015789;28;20133;-65
2023/11/17 00:03:43;;;;;;;4.53;2.03;;;;;;;-1.21;72.78;99032.66;5013413;28;20038;-62
2023/11/17 00:06:09;;;;;;;2.67;1.70;;;;;;;-1.22;72.79;99048.44;5014726;28;20041;-60
2023/11/17 00:08:35;;;;;;;2.70;1.60;;;;;;;-1.21;72.41;99044.84;5014583;28;20486;-60
2023/11/17 00:11:00;;;;;;;2.35;1.60;;;;;;;-1.26;72.78;99042.78;5014277;28;20041;-62
2023/11/17 00:13:26;;;;;;;2.40;1.40;;;;;;;-1.31;72.39;99042.47;5013164;28;20120;-61
2023/11/17 00:15:52;;;;;;;3.65;2.00;;;;;;;-1.26;72.90;99050.59;5014033;28;20128;-62
2023/11/17 00:18:20;;;;;;;3.03;1.75;;;;;;;-1.29;72.69;99048.31;5014481;28;20053;-60
2023/11/17 00:20:46;;;;;;;3.65;1.80;;;;;;;-1.31;72.85;99050.28;5012763;28;20044;-61
2023/11/17 00:23:14;;;;;;;1.83;1.70;;;;;;;-1.21;72.92;99050.84;5014556;28;20489;-62
2023/11/17 00:25:40;;;;;;;2.17;1.98;;;;;;;-1.22;73.36;99051.84;5012832;28;20042;-62
2023/11/17 00:28:05;;;;;;;2.58;1.90;;;;;;;-1.21;72.92;99053.47;5013853;28;20062;-62
2023/11/17 00:30:31;;;;;;;3.03;2.20;;;;;;;-1.15;72.48;99055.41;5013938;28;20415;-62
2023/11/17 00:32:57;;;;;;;2.08;1.75;;;;;;;-1.10;72.74;99061.88;5013942;28;20054;-61
2023/11/17 00:35:22;;;;;;;2.72;1.98;;;;;;;-1.07;72.28;99071.94;5012601;28;20045;-60
2023/11/17 00:37:51;;;;;;;2.15;1.65;;;;;;;-1.09;71.89;99074.69;5028992;28;20049;-60
2023/11/17 00:40:17;;;;;;;3.25;2.10;;;;;;;-1.17;72.18;99062.56;5012842;28;20084;-61
2023/11/17 00:42:44;;;;;;;3.20;2.00;;;;;;;-1.27;72.35;99072.34;5012861;28;20050;-61
2023/11/17 00:45:10;;;;;;;3.67;2.00;;;;;;;-1.19;72.52;99071.50;5012762;28;20036;-61
2023/11/17 00:47:35;;;;;;;3.75;2.20;;;;;;;-1.24;72.44;99072.00;5012474;28;20081;-61
2023/11/17 00:50:01;;;;;;;3.78;2.08;;;;;;;-1.22;72.79;99069.25;5012569;28;20037;-62
2023/11/17 00:52:29;;;;;;;4.38;2.03;;;;;;;-1.06;71.86;99070.94;5012599;28;20048;-60
2023/11/17 00:55:02;;;;;;;1.90;1.70;;;;;;;-1.17;71.77;99072.16;5012631;28;20126;-61
2023/11/17 00:57:32;;;;;;;3.20;2.00;;;;;;;-1.15;72.09;99076.22;5014169;28;20053;-59
2023/11/17 00:59:57;;;;;;;2.53;1.70;;;;;;;-1.09;72.00;99073.91;5012700;28;20038;-61
2023/11/17 01:02:25;;;;;;;3.00;2.00;;;;;;;-1.11;71.77;99074.09;5013507;28;20192;-60
2023/11/17 01:04:50;;;;;;;3.05;1.90;;;;;;;-1.00;71.82;99075.47;5013965;28;20053;-60
2023/11/17 01:07:18;;;;;;;3.97;1.90;;;;;;;-0.93;72.05;99074.63;5013494;28;20046;-59
2023/11/17 01:09:44;;;;;;;3.30;1.95;;;;;;;-0.87;71.64;99077.53;5012351;28;20045;-61
2023/11/17 01:12:09;;;;;;;3.33;1.95;;;;;;;-0.94;71.66;99085.22;5017656;28;20049;-61
2023/11/17 01:14:35;;;;;;;3.70;1.85;;;;;;;-1.04;71.39;99082.81;5021570;28;20037;-61
2023/11/17 01:17:01;;;;;;;2.90;2.05;;;;;;;-1.07;72.07;99093.56;5020937;28;20089;-61
2023/11/17 01:19:27;;;;;;;2.05;1.70;;;;;;;-1.10;71.80;99087.91;5012318;28;20145;-60
2023/11/17 01:21:53;;;;;;;2.47;1.88;;;;;;;-1.12;71.71;99092.44;5013010;28;20046;-60
2023/11/17 01:24:18;;;;;;;3.55;2.45;;;;;;;-1.03;71.74;99094.03;5012336;28;20046;-61
2023/11/17 01:26:44;;;;;;;3.17;2.10;;;;;;;-1.03;71.65;99094.03;5012869;28;20500;-60
2023/11/17 01:29:11;;;;;;;2.55;1.70;;;;;;;-1.02;72.55;99106.06;5012125;28;20057;-60
2023/11/17 01:31:36;;;;;;;2.85;1.92;;;;;;;-1.01;72.07;99092.88;4995553;28;20481;-61
2023/11/17 01:34:04;;;;;;;2.60;2.00;;;;;;;-1.03;72.05;99104.44;5013043;28;20034;-61
2023/11/17 01:36:30;;;;;;;2.95;1.80;;;;;;;-1.20;72.35;99096.72;5011857;28;20507;-60
2023/11/17 01:38:57;;;;;;;3.10;1.85;;;;;;;-1.21;71.80;99112.47;5012150;28;20046;-61
2023/11/17 01:41:23;;;;;;;2.72;1.58;;;;;;;-1.30;70.28;99123.88;4996462;28;20100;-61
2023/11/17 01:43:50;;;;;;;2.30;1.83;;;;;;;-1.35;70.51;99114.00;5011678;28;20046;-61
2023/11/17 01:46:20;;;;;;;3.03;1.50;;;;;;;-1.35;70.42;99123.56;5013346;28;20041;-60
2023/11/17 01:48:46;;;;;;;5.47;2.20;;;;;;;-1.39;69.79;99126.50;5013695;28;20119;-62
2023/11/17 01:51:12;;;;;;;2.70;1.73;;;;;;;-1.56;70.52;99124.91;5013127;28;20469;-62
2023/11/17 01:53:38;;;;;;;4.65;2.08;;;;;;;-1.58;70.49;99126.09;4995278;28;20046;-60
2023/11/17 01:56:05;;;;;;;4.93;1.90;;;;;;;-1.53;70.60;99124.63;5012277;28;20450;-62
2023/11/17 01:58:30;;;;;;;9.25;2.10;;;;;;;-1.50;70.74;99126.03;5012131;28;20049;-60
2023/11/17 02:00:56;;;;;;;4.50;2.00;;;;;;;-1.42;70.15;99134.63;5012500;28;20041;-59
2023/11/17 02:03:22;;;;;;;3.25;1.95;;;;;;;-1.44;70.14;99125.38;5012534;28;20136;-59
2023/11/17 02:05:57;;;;;;;5.68;2.40;;;;;;;-1.46;70.44;99130.75;5012645;28;20046;-61
2023/11/17 02:08:42;;;;;;;3.08;2.20;;;;;;;-1.43;70.92;99135.63;4995953;28;20400;-61
2023/11/17 02:11:37;;;;;;;3.28;1.83;;;;;;;-1.37;70.95;99144.56;5012057;28;20034;-61
2023/11/17 02:14:08;;;;;;;5.15;2.30;;;;;;;-1.43;71.58;99138.22;5006956;28;20135;-60
2023/11/17 02:16:36;;;;;;;;;;;;;;;-1.60;72.37;99137.44;4979378;28;20042;-61
2023/11/17 02:19:07;;;;;;;6.53;3.40;;;;;;;-1.67;72.34;99139.09;5010631;28;19928;-61
2023/11/17 02:21:34;;;;;;;4.15;2.15;;;;;;;-1.68;72.30;99134.84;4978201;28;20041;-61
2023/11/17 02:24:06;;;;;;;3.90;2.17;;;;;;;-1.61;72.54;99138.41;5011034;28;20069;-59
2023/11/17 02:26:52;;;;;;;5.20;2.42;;;;;;;-1.56;72.71;99144.91;5012279;28;20052;-61
2023/11/17 02:29:39;;;;;;;4.85;2.90;;;;;;;-1.55;72.87;99151.75;5011614;28;20064;-60
2023/11/17 02:32:05;;;;;;;2.50;2.08;;;;;;;-1.49;72.48;99158.88;4996054;28;20107;-62
2023/11/17 02:34:32;;;;;;;4.03;2.50;;;;;;;-1.45;72.20;99154.97;5010975;28;20176;-61
2023/11/17 02:37:05;;;;;;;6.53;3.15;;;;;;;-1.52;72.42;99154.00;5010892;28;20041;-60
2023/11/17 02:39:36;;;;;;;4.30;2.58;;;;;;;-1.55;72.14;99162.94;4995288;28;20096;-60
2023/11/17 02:42:10;;;;;;;4.05;2.60;;;;;;;-1.47;72.24;99160.34;5011946;28;20057;-61
2023/11/17 02:44:39;;;;;;;5.57;2.90;;;;;;;-1.41;72.22;99159.69;5016892;28;20041;-60
2023/11/17 02:47:08;;;;;;;3.80;2.50;;;;;;;-1.47;72.74;99165.53;5030496;28;20049;-60
2023/11/17 02:49:46;;;;;;;4.70;2.63;;;;;;;-1.48;72.57;99157.91;5007479;28;20458;-60
2023/11/17 02:52:31;;;;;;;4.35;2.42;;;;;;;-1.55;72.39;99175.94;5010747;28;20040;-61
2023/11/17 02:55:02;;;;;;;5.63;2.63;;;;;;;-1.61;72.94;99166.22;5011740;28;20042;-59
2023/11/17 02:57:30;;;;;;;4.90;2.50;;;;;;;-1.57;72.60;99175.28;5010387;28;20069;-61
2023/11/17 02:59:56;;;;;;;4.72;2.47;;;;;;;-1.63;73.12;99171.56;5010177;28;20128;-62
2023/11/17 03:02:22;;;;;;;5.05;2.72;;;;;;;-1.67;73.14;99174.66;5010724;28;20073;-61
2023/11/17 03:04:54;;;;;;;4.95;2.75;;;;;;;-1.80;73.65;99174.34;4993812;28;20602;-60
2023/11/17 03:07:20;;;;;;;2.50;1.83;;;;;;;-1.74;74.07;99177.09;5011830;28;20383;-61
2023/11/17 03:09:51;;;;;;;6.32;3.13;;;;;;;-1.70;73.69;99186.19;5010281;28;20531;-59
2023/11/17 03:12:17;;;;;;;2.97;1.98;;;;;;;-1.71;72.48;99183.75;5011810;28;20054;-61
2023/11/17 03:14:43;;;;;;;5.13;2.40;;;;;;;-1.72;72.19;99182.94;5010701;28;20507;-61
2023/11/17 03:17:09;;;;;;;3.55;2.15;;;;;;;-1.72;71.46;99198.53;5011651;28;20061;-61
2023/11/17 03:19:40;;;;;;;3.40;2.00;;;;;;;-1.85;71.93;99187.81;4994111;28;20042;-61
2023/11/17 03:22:06;;;;;;;3.67;2.22;;;;;;;-1.97;71.98;99182.13;5010090;28;20069;-58
2023/11/17 03:24:34;;;;;;;4.25;1.92;;;;;;;-2.02;72.03;99196.59;5011465;28;20049;-61
2023/11/17 03:27:00;;;;;;;2.75;1.90;;;;;;;-2.08;70.12;99208.41;5014013;28;20045;-61
2023/11/17 03:29:31;;;;;;;2.45;1.80;;;;;;;-2.16;70.61;99198.00;5014096;28;20062;-60
2023/11/17 03:31:58;;;;;;;2.08;1.73;;;;;;;-2.27;70.10;99206.91;5015003;28;20041;-60
2023/11/17 03:34:29;;;;;;;3.95;1.55;;;;;;;-2.28;70.72;99200.09;5014033;28;20507;-60
2023/11/17 03:36:57;;;;;;;3.30;1.88;;;;;;;-2.30;70.75;99204.63;5015227;28;20467;-61
2023/11/17 03:39:24;;;;;;;2.85;1.85;;;;;;;-2.29;70.38;99199.28;5013982;28;20041;-60
2023/11/17 03:41:50;;;;;;;2.95;1.75;;;;;;;-2.44;70.11;99203.47;5015054;28;20038;-60
2023/11/17 03:44:16;;;;;;;2.15;1.45;;;;;;;-2.39;69.40;99205.59;5015160;28;20045;-59
2023/11/17 03:46:51;;;;;;;2.28;1.48;;;;;;;-2.44;69.43;99205.25;4997673;28;20033;-60
2023/11/17 03:49:20;;;;;;;1.75;1.42;;;;;;;-2.57;68.90;99219.47;5015121;28;20048;-57
2023/11/17 03:51:50;;;;;;;4.63;1.67;;;;;;;-2.59;70.02;99218.00;5015007;28;20128;-61
2023/11/17 03:54:22;;;;;;;2.10;1.60;;;;;;;-2.61;70.00;99214.78;5015232;28;20133;-62
2023/11/17 03:56:52;;;;;;;2.45;1.77;;;;;;;-2.59;70.42;99202.44;5015164;28;20061;-61
2023/11/17 03:59:18;;;;;;;;;;;;;;;-2.62;71.02;99205.34;5014300;28;20046;-61
2023/11/17 04:01:45;;;;;;;1.42;1.33;;;;;;;-2.68;71.46;99218.94;5014435;28;19928;-60
2023/11/17 04:04:11;;;;;;;2.33;1.67;;;;;;;-2.75;71.76;99216.97;5014498;28;20100;-60
2023/11/17 04:06:37;;;;;;;2.83;1.90;;;;;;;-2.83;71.64;99219.53;5014567;28;20064;-60
2023/11/17 04:09:07;;;;;;;2.38;1.40;;;;;;;-2.91;72.20;99223.88;5014771;28;20165;-61
2023/11/17 04:11:39;;;;;;;2.25;1.60;;;;;;;-3.01;72.25;99232.59;5012832;28;20041;-59
2023/11/17 04:14:07;;;;;;;1.63;1.52;;;;;;;-3.16;72.77;99228.94;5014778;28;20046;-62
2023/11/17 04:16:33;;;;;;;3.47;2.00;;;;;;;-3.30;73.39;99234.69;5013126;28;20061;-61
2023/11/17 04:19:00;;;;;;;2.58;1.55;;;;;;;-3.39;73.38;99231.22;4993529;28;20423;-61
2023/11/17 04:21:26;;;;;;;3.60;1.80;;;;;;;-3.46;74.06;99227.63;4994943;28;20046;-60
2023/11/17 04:23:52;;;;;;;2.10;1.67;;;;;;;-3.44;73.73;99238.66;5010148;28;20419;-60
2023/11/17 04:26:19;;;;;;;3.28;1.92;;;;;;;-3.47;74.03;99251.88;5012830;28;20046;-61
2023/11/17 04:28:47;;;;;;;1.67;1.33;;;;;;;-3.63;74.63;99249.97;5013945;28;20072;-60
2023/11/17 04:31:13;;;;;;;3.50;1.90;;;;;;;-3.66;75.28;99242.50;5013961;28;20038;-62
2023/11/17 04:33:39;;;;;;;4.88;1.92;;;;;;;-3.70;75.82;99252.38;5013901;28;20057;-61
2023/11/17 04:36:05;;;;;;;3.10;1.98;;;;;;;-3.73;76.36;99244.09;5013616;28;20041;-61
2023/11/17 04:38:31;;;;;;;3.53;1.75;;;;;;;-3.69;75.41;99250.59;5013300;28;20057;-63
2023/11/17 04:40:58;;;;;;;3.50;2.00;;;;;;;-3.63;75.48;99249.97;5013487;28;20034;-61
2023/11/17 04:43:23;;;;;;;3.38;1.88;;;;;;;-3.63;75.34;99257.75;5013637;28;20046;-60
2023/11/17 04:45:49;;;;;;;3.95;1.90;;;;;;;-3.70;76.32;99254.97;5013564;28;20411;-62
2023/11/17 04:48:20;;;;;;;3.40;1.85;;;;;;;-3.67;75.29;99265.03;5013616;28;20487;-60
2023/11/17 04:50:46;;;;;;;3.85;2.25;;;;;;;-3.69;75.24;99264.34;5013465;28;20052;-60
2023/11/17 04:53:12;;;;;;;2.75;1.90;;;;;;;-3.72;76.26;99266.44;4995605;28;20042;-62
2023/11/17 04:55:38;;;;;;;2.97;2.05;;;;;;;-3.82;76.39;99263.09;4995984;28;20129;-61
2023/11/17 04:58:05;;;;;;;2.13;1.70;;;;;;;-3.81;76.79;99264.72;4960686;28;20050;-60
2023/11/17 05:00:31;;;;;;;4.15;2.05;;;;;;;-3.79;76.74;99268.81;5013554;28;20088;-62
2023/11/17 05:02:59;;;;;;;3.47;2.10;;;;;;;-3.73;77.04;99263.03;5013167;28;20073;-60
2023/11/17 05:05:27;;;;;;;2.28;1.73;;;;;;;-3.74;76.45;99266.56;5011693;28;20041;-60
2023/11/17 05:07:53;;;;;;;2.85;1.90;;;;;;;-3.74;76.07;99274.31;5011766;28;20427;-59
2023/11/17 05:10:19;;;;;;;3.42;2.30;;;;;;;-3.77;76.18;99287.56;5013253;28;20037;-62
2023/11/17 05:12:49;;;;;;;4.43;2.53;;;;;;;-3.82;76.62;99276.03;5011494;28;20088;-61
2023/11/17 05:15:20;;;;;;;4.10;2.10;;;;;;;-3.81;76.77;99282.84;5012681;28;20046;-60
2023/11/17 05:17:49;;;;;;;4.55;2.00;;;;;;;-3.95;76.92;99284.16;5013229;28;20304;-61
2023/11/17 05:20:19;;;;;;;3.15;2.15;;;;;;;-3.90;77.21;99287.16;5013054;28;20046;-62
2023/11/17 05:22:46;;;;;;;;;;;;;;;-3.91;77.50;99285.53;5012287;28;20103;-62
2023/11/17 05:25:13;;;;;;;3.28;1.83;;;;;;;-3.92;77.45;99294.25;5011299;28;19972;-62
2023/11/17 05:27:40;;;;;;;2.55;1.88;;;;;;;-3.95;77.68;99300.53;5011427;28;20415;-60
2023/11/17 05:30:07;;;;;;;4.45;2.50;;;;;;;-4.00;77.90;99297.56;5012841;28;20042;-59
2023/11/17 05:32:34;;;;;;;4.28;2.20;;;;;;;-3.97;78.31;99302.47;5012683;28;20242;-62
2023/11/17 05:35:00;;;;;;;4.35;2.20;;;;;;;-3.91;77.97;99303.66;5011312;28;20111;-62
2023/11/17 05:37:26;;;;;;;4.50;2.60;;;;;;;-3.90;78.24;99308.66;5010502;28;20045;-60
2023/11/17 05:39:53;;;;;;;4.00;2.10;;;;;;;-3.91;77.70;99309.63;5010728;28;20065;-59
2023/11/17 05:42:19;;;;;;;4.60;2.30;;;;;;;-3.87;78.47;99310.16;5011993;28;20487;-62
2023/11/17 05:44:45;;;;;;;3.70;2.17;;;;;;;-3.83;77.91;99318.44;5010404;28;20053;-60
2023/11/17 05:47:10;;;;;;;3.97;2.40;;;;;;;-3.86;78.29;99313.56;5011605;28;20041;-62
2023/11/17 05:49:43;;;;;;;4.40;2.53;;;;;;;-3.90;78.47;99315.63;5011826;28;20537;-62
2023/11/17 05:52:09;;;;;;;3.72;2.60;;;;;;;-3.93;78.62;99321.91;5010715;28;20049;-61
2023/11/17 05:54:43;;;;;;;3.70;2.55;;;;;;;-3.93;78.80;99315.91;5010962;28;20410;-60
2023/11/17 05:57:13;;;;;;;3.95;2.60;;;;;;;-3.92;78.88;99322.72;5011291;28;20399;-62
2023/11/17 05:59:39;;;;;;;6.07;3.08;;;;;;;-3.98;78.86;99331.06;5012583;28;20068;-62
2023/11/17 06:02:06;;;;;;;6.47;2.83;;;;;;;-4.03;79.44;99326.34;5011714;28;20042;-61
2023/11/17 06:04:35;;;;;;;3.75;2.50;;;;;;;-4.03;79.26;99321.16;5010942;28;20041;-63
2023/11/17 06:07:02;;;;;;;4.63;2.42;;;;;;;-3.94;78.46;99340.16;4995186;28;20052;-62
2023/11/17 06:09:28;;;;;;;2.92;2.33;;;;;;;-3.97;79.12;99337.88;5011666;28;20399;-62
2023/11/17 06:11:55;;;;;;;8.13;2.50;;;;;;;-3.96;78.74;99337.75;4993858;28;20137;-61
2023/11/17 06:14:27;;;;;;;3.35;2.40;;;;;;;-3.90;79.08;99331.97;5012186;28;20411;-63
2023/11/17 06:16:53;;;;;;;4.25;2.72;;;;;;;-3.88;78.04;99337.84;5007736;28;20049;-62
2023/11/17 06:19:20;;;;;;;3.70;1.92;;;;;;;-3.86;78.72;99339.47;5010701;28;20122;-60
2023/11/17 06:21:48;;;;;;;4.68;2.50;;;;;;;-3.82;78.27;99348.56;5010595;28;20066;-59
2023/11/17 06:24:14;;;;;;;3.63;2.05;;;;;;;-3.82;78.43;99351.13;5008945;28;20139;-57
2023/11/17 06:26:43;;;;;;;3.58;2.10;;;;;;;-3.82;78.64;99345.97;4977565;28;20427;-60
2023/11/17 06:29:10;;;;;;;4.82;2.83;;;;;;;-3.69;78.14;99338.66;5011834;28;20081;-60
2023/11/17 06:31:36;;;;;;;3.15;2.00;;;;;;;-3.69;77.95;99349.84;5010585;28;20505;-61
2023/11/17 06:34:02;;;;;;;4.18;2.40;;;;;;;-3.69;77.94;99347.25;5012022;28;20160;-61
2023/11/17 06:36:27;;;;;;;4.75;2.50;;;;;;;-3.77;77.99;99356.72;5010389;28;20566;-62
2023/11/17 06:38:53;;;;;;;5.35;2.78;;;;;;;-3.74;78.53;99359.81;5011313;28;20101;-60
2023/11/17 06:41:19;;;;;;;5.68;2.50;;;;;;;-3.73;77.32;99356.28;5010576;28;20030;-61
2023/11/17 06:43:44;;;;;;;5.18;3.05;;;;;;;-3.69;77.97;99370.56;5009709;28;20509;-62
2023/11/17 06:46:10;;;;;;;4.07;2.67;;;;;;;-3.71;76.52;99369.88;5010008;28;20049;-63
2023/11/17 06:48:38;;;;;;;2.97;2.47;;;;;;;-3.73;76.14;99381.38;5009680;28;20042;-61
2023/11/17 06:51:07;;;;;;;5.13;2.75;;;;;;;-3.70;76.80;99381.09;5008561;28;20056;-62
2023/11/17 06:53:33;;;;;;;4.65;2.97;;;;;;;-3.71;76.91;99377.66;5009518;28;20040;-62
2023/11/17 06:56:00;;;;;;;4.93;3.05;;;;;;;-3.75;76.58;99372.94;5011394;28;20042;-61
2023/11/17 06:58:26;;;;;;;7.97;2.72;;;;;;;-3.69;76.08;99383.50;5011420;28;20050;-62
2023/11/17 07:00:52;;;;;;;4.80;2.72;;;;;;;-3.64;76.14;99384.88;5011584;28;20046;-61
2023/11/17 07:03:21;;;;;;;6.15;2.78;;;;;;;-3.62;75.57;99383.72;5011399;28;20049;-61
2023/11/17 07:05:49;;;;;;;3.03;2.27;;;;;;;-3.62;74.17;99393.28;5011784;28;20463;-61
2023/11/17 07:08:14;;;;;;;5.78;2.88;;;;;;;-3.57;75.58;99391.09;5011056;28;20336;-61
2023/11/17 07:10:43;;;;;;;5.50;2.30;;;;;;;-3.61;74.30;99394.94;5011106;28;20464;-62
2023/11/17 07:13:13;;;;;;;2.80;1.95;;;;;;;-3.60;73.06;99392.19;5008176;28;20092;-59
2023/11/17 07:15:39;;;;;;;2.53;1.70;;;;;;;-3.61;71.35;99413.06;5011307;28;20046;-58
2023/11/17 07:18:06;;;;;;;3.50;1.85;;;;;;;-3.59;71.29;99395.59;5010721;28;20495;-60
2023/11/17 07:20:33;;;;;;;2.40;1.75;;;;;;;-3.51;70.91;99408.63;5008875;28;20089;-58
2023/11/17 07:22:59;;;;;;;2.30;1.90;;;;;;;-3.54;69.20;99406.34;5010745;28;20049;-60
2023/11/17 07:25:25;;;;;;;2.05;1.83;;;;;;;-3.48;68.01;99405.75;5009510;28;20041;-59
2023/11/17 07:27:51;;;;;;;3.88;2.00;;;;;;;-3.46;67.95;99412.41;5010623;28;20057;-60
2023/11/17 07:30:19;;;;;;;2.78;2.10;;;;;;;-3.45;67.35;99402.84;5011030;28;20060;-59
2023/11/17 07:32:45;;;;;;;3.25;2.00;;;;;;;-3.33;66.94;99413.84;5010762;28;20040;-60
2023/11/17 07:35:11;;;;;;;4.22;2.03;;;;;;;-3.28;67.00;99407.25;5011011;28;20040;-56
2023/11/17 07:37:39;;;;;;;3.15;2.00;;;;;;;-3.23;66.49;99399.84;5010616;28;20050;-60
2023/11/17 07:40:06;;;;;;;2.58;1.80;;;;;;;-3.15;65.87;99396.50;5009160;28;20121;-60
2023/11/17 07:42:32;;;;;;;2.38;1.60;;;;;;;-3.06;65.57;99398.22;5010625;28;20496;-60
2023/11/17 07:44:58;;;;;;;2.35;1.90;;;;;;;-2.92;65.58;99409.00;5010356;28;20156;-59
2023/11/17 07:47:24;;;;;;;3.60;1.90;;;;;;;-2.84;62.77;99409.88;5010458;28;20050;-60
2023/11/17 07:49:54;;;;;;;2.55;1.63;;;;;;;-2.86;61.61;99427.38;5034030;28;20040;-61
2023/11/17 07:52:23;;;;;;;2.63;1.70;;;;;;;-2.85;62.49;99416.06;5010696;28;20054;-59
2023/11/17 07:54:50;;;;;;;1.55;1.45;;;;;;;-2.80;62.27;99423.38;5007590;28;20160;-58
2023/11/17 07:57:18;;;;;;;1.65;1.35;;;;;;;-2.71;62.25;99417.28;5001113;28;20422;-57
2023/11/17 07:59:43;;;;;;;2.00;1.50;;;;;;;-2.44;62.16;99416.34;5010670;28;20046;-60
2023/11/17 08:02:09;;;;;;;3.13;1.58;;;;;;;-2.22;61.07;99419.38;5007924;28;20399;-57
2023/11/17 08:04:37;;;;;;;1.45;1.30;;;;;;;-2.10;60.75;99428.53;5009139;28;20034;-58
2023/11/17 08:07:05;;;;;;;2.95;1.90;;;;;;;-2.02;59.73;99419.97;5010446;28;20076;-61
2023/11/17 08:09:33;;;;;;;2.50;1.45;;;;;;;-1.95;58.81;99420.97;5008710;28;20038;-61
2023/11/17 08:12:00;;;;;;;1.70;1.40;;;;;;;-2.08;58.98;99427.41;5012920;28;20049;-60
2023/11/17 08:14:26;;;;;;;2.03;1.58;;;;;;;-2.05;59.43;99426.28;5013951;28;20096;-62
2023/11/17 08:16:52;;;;;;;2.75;1.50;;;;;;;-2.05;59.10;99434.06;5013100;28;20148;-60
2023/11/17 08:19:18;;;;;;;2.63;1.35;;;;;;;-2.04;58.50;99440.06;5012719;28;20124;-60
2023/11/17 08:21:43;;;;;;;1.63;1.17;;;;;;;-2.08;58.14;99448.19;5014091;28;20491;-60
2023/11/17 08:24:09;;;;;;;2.80;1.90;;;;;;;-2.10;59.54;99444.09;5013949;28;20038;-60
2023/11/17 08:26:36;;;;;;;6.07;2.92;;;;;;;-2.02;59.92;99454.53;5013895;28;20045;-60
2023/11/17 08:29:04;;;;;;;3.95;2.65;;;;;;;-1.95;60.24;99454.72;5013422;28;20478;-61
2023/11/17 08:31:29;;;;;;;2.38;1.85;;;;;;;-1.98;59.85;99444.66;5013540;28;20539;-60
2023/11/17 08:33:55;;;;;;;2.03;1.75;;;;;;;-1.92;59.98;99446.63;5013738;28;20064;-61
2023/11/17 08:36:27;;;;;;;1.98;1.63;;;;;;;-1.96;60.17;99453.13;5013555;28;20037;-61
2023/11/17 08:38:56;;;;;;;2.25;1.55;;;;;;;-1.92;59.29;99451.81;4995425;28;20404;-58
2023/11/17 08:41:23;;;;;;;1.75;1.40;;;;;;;-2.03;59.00;99468.47;5013285;28;20033;-61
2023/11/17 08:43:51;;;;;;;3.60;1.20;;;;;;;-1.87;58.75;99459.97;5013462;28;20034;-61
2023/11/17 08:46:17;;;;;;;2.25;1.42;;;;;;;-1.84;58.64;99462.25;5012260;28;20106;-60
2023/11/17 08:48:43;;;;;;;1.65;1.45;;;;;;;-2.06;58.80;99453.22;5012245;28;20152;-60
2023/11/17 08:51:09;;;;;;;2.28;1.30;;;;;;;-2.11;58.80;99471.06;5012528;28;20030;-63
2023/11/17 08:53:35;;;;;;;2.47;1.40;;;;;;;-2.15;59.59;99474.91;5013699;28;20573;-61
2023/11/17 08:56:01;;;;;;;2.35;1.92;;;;;;;-2.05;59.81;99467.84;5012252;28;20081;-59
2023/11/17 08:58:28;;;;;;;4.05;1.60;;;;;;;-2.19;60.60;99461.41;5012287;28;20528;-60
2023/11/17 09:00:55;;;;;;;2.80;1.48;;;;;;;-2.14;61.75;99463.56;5013444;28;20522;-60
2023/11/17 09:03:20;;;;;;;3.30;2.10;;;;;;;-2.03;60.53;99470.28;5013437;28;20042;-59
2023/11/17 09:05:46;;;;;;;3.08;1.67;;;;;;;-2.11;60.04;99465.88;5013509;28;20033;-63
2023/11/17 09:08:12;;;;;;;1.65;1.38;;;;;;;-2.16;59.45;99468.09;5011908;28;20093;-63
2023/11/17 09:10:38;;;;;;;2.30;1.60;;;;;;;-2.14;59.57;99459.19;5013299;28;20045;-63
2023/11/17 09:13:05;;;;;;;1.33;1.23;;;;;;;-2.11;59.53;99477.06;5013140;28;20522;-62
2023/11/17 09:15:33;;;;;;;1.40;1.30;;;;;;;-2.01;58.39;99473.53;5012228;28;20041;-62
2023/11/17 09:18:00;;;;;;;2.33;1.42;;;;;;;-2.07;56.97;99469.78;5011312;28;20056;-61
2023/11/17 09:20:27;;;;;;;2.13;1.38;;;;;;;-1.99;57.59;99471.59;5011969;28;20037;-62
2023/11/17 09:22:54;;;;;;;2.53;1.80;;;;;;;-2.02;57.44;99477.13;5011186;28;20418;-62
2023/11/17 09:25:23;;;;;;;4.45;1.60;;;;;;;-2.00;57.19;99480.34;5011996;28;20088;-62
2023/11/17 09:27:57;;;;;;;2.00;1.60;;;;;;;-2.16;57.33;99487.09;5011505;28;20455;-62
2023/11/17 09:30:24;;;;;;;1.17;1.10;;;;;;;-2.21;57.75;99483.31;5011950;28;20092;-60
2023/11/17 09:32:57;;;;;;;3.08;1.65;;;;;;;-2.19;58.13;99486.59;5008650;28;20049;-63
2023/11/17 09:35:26;;;;;;;1.77;1.30;;;;;;;-2.26;58.17;99482.94;5011553;28;20046;-62
2023/11/17 09:37:55;;;;;;;1.15;1.05;;;;;;;-2.21;58.37;99484.13;4978141;28;20100;-63
2023/11/17 09:40:23;;;;;;;1.50;1.30;;;;;;;-2.27;58.48;99489.94;5011871;28;20108;-62
2023/11/17 09:42:50;;;;;;;2.42;1.30;;;;;;;-2.43;59.60;99485.44;5011096;28;20414;-62
2023/11/17 09:45:28;;;;;;;1.35;1.20;;;;;;;-2.34;59.37;99494.13;5011644;28;20044;-62
2023/11/17 09:47:57;;;;;;;3.03;1.67;;;;;;;-2.24;59.06;99492.22;5012707;28;20046;-63
2023/11/17 09:50:28;;;;;;;1.45;1.33;;;;;;;-2.10;57.54;99503.84;5012769;28;20046;-61
2023/11/17 09:52:59;;;;;;;2.85;1.60;;;;;;;-2.22;57.54;99503.28;5012647;28;20056;-64
2023/11/17 09:55:27;;;;;;;1.92;1.50;;;;;;;-2.15;58.24;99509.47;5012867;28;20046;-63
2023/11/17 09:58:14;;;;;;;1.55;1.23;;;;;;;-2.00;57.02;99506.31;5012422;28;20475;-63
2023/11/17 10:00:45;;;;;;;2.20;1.25;;;;;;;-2.00;56.34;99516.72;5011428;28;20046;-63
2023/11/17 10:03:13;;;;;;;2.50;1.42;;;;;;;-2.01;56.41;99502.09;5010886;28;20466;-62
2023/11/17 10:05:40;;;;;;;1.40;1.30;;;;;;;-2.02;56.98;99506.50;5011124;28;20416;-63
2023/11/17 10:08:10;;;;;;;1.70;1.10;;;;;;;-1.99;56.35;99502.78;5012442;28;20407;-63
2023/11/17 10:10:38;;;;;;;2.00;1.08;;;;;;;-2.05;55.63;99509.41;5012219;28;20045;-62
2023/11/17 10:13:11;;;;;;;1.50;1.40;;;;;;;-2.00;55.23;99507.16;5010856;28;20050;-61
2023/11/17 10:15:44;;;;;;;1.70;1.40;;;;;;;-2.02;55.41;99503.91;5011869;28;20050;-62
2023/11/17 10:18:26;;;;;;;1.30;1.20;;;;;;;-2.02;55.12;99506.50;5010778;28;20546;-61
2023/11/17 10:20:53;;;;;;;1.50;1.10;;;;;;;-1.90;55.13;99504.44;5012005;28;20618;-62
2023/11/17 10:23:21;;;;;;;1.17;1.13;;;;;;;-1.79;54.92;99514.59;5010764;28;20054;-62
2023/11/17 10:25:54;;;;;;;1.98;1.58;;;;;;;-1.79;55.53;99514.59;5011642;28;20064;-63
2023/11/17 10:28:21;;;;;;;1.83;1.38;;;;;;;-1.84;55.71;99520.22;5012224;28;20393;-61
2023/11/17 10:30:48;;;;;;;1.80;1.50;;;;;;;-1.73;55.73;99519.16;5013553;28;20033;-63
2023/11/17 10:33:20;;;;;;;1.20;1.10;;;;;;;-1.78;54.62;99520.59;5020658;28;20589;-62
2023/11/17 10:36:16;;;;;;;1.30;1.20;;;;;;;-1.78;55.39;99520.59;5015673;28;20582;-63
2023/11/17 10:38:46;;;;;;;2.03;1.30;;;;;;;-1.66;55.54;99530.56;4992531;28;20141;-62
2023/11/17 10:41:39;;;;;;;2.60;1.20;;;;;;;-1.71;52.78;99525.00;5006825;28;20520;-63
2023/11/17 10:44:03;;;;;;;2.03;1.40;;;;;;;-1.85;53.34;99520.41;5011235;28;20057;-60
2023/11/17 10:46:35;;;;;;;2.72;1.60;;;;;;;-1.90;53.60;99531.25;5011185;28;20053;-62
2023/11/17 10:49:05;;;;;;;4.75;1.77;;;;;;;-1.90;53.82;99530.44;5011738;28;20077;-63
2023/11/17 10:51:32;;;;;;;2.55;1.60;;;;;;;-1.95;54.48;99528.28;5010451;28;20121;-62
2023/11/17 10:54:06;;;;;;;2.63;1.70;;;;;;;-1.94;54.64;99542.09;5011659;28;20054;-63
2023/11/17 10:56:33;;;;;;;2.45;1.63;;;;;;;-2.12;54.81;99534.34;5009880;28;20480;-63
2023/11/17 10:59:00;;;;;;;2.70;1.85;;;;;;;-2.35;56.07;99550.41;5010375;28;20050;-62
2023/11/17 11:01:34;;;;;;;1.20;1.10;;;;;;;-2.39;56.48;99541.28;5011503;28;20038;-62
2023/11/17 11:04:00;;;;;;;2.60;1.85;;;;;;;-2.37;56.63;99554.13;5010412;28;20042;-61
2023/11/17 11:06:27;;;;;;;4.75;2.10;;;;;;;-2.40;56.71;99550.06;5009959;28;20037;-63
2023/11/17 11:09:08;;;;;;;2.65;1.85;;;;;;;-2.48;57.18;99549.16;4993823;28;20050;-60
2023/11/17 11:11:35;;;;;;;4.00;2.05;;;;;;;-2.63;58.38;99548.88;5009095;28;20033;-63
2023/11/17 11:14:01;;;;;;;2.65;1.63;;;;;;;-2.63;57.98;99546.28;5012257;28;20128;-60
2023/11/17 11:16:32;;;;;;;2.75;2.05;;;;;;;-2.63;58.63;99548.88;5009490;28;20385;-61
2023/11/17 11:19:02;;;;;;;3.20;2.10;;;;;;;-2.77;58.74;99553.59;5011212;28;20077;-63
2023/11/17 11:21:30;;;;;;;2.05;1.77;;;;;;;-2.78;58.24;99551.16;5011194;28;20040;-62
2023/11/17 11:23:59;;;;;;;2.42;1.63;;;;;;;-2.72;57.95;99552.34;5011497;28;20038;-62
2023/11/17 11:26:26;;;;;;;2.13;1.80;;;;;;;-2.62;58.47;99553.94;5010950;28;20030;-64
2023/11/17 11:28:53;;;;;;;2.20;1.70;;;;;;;-2.62;58.00;99553.09;4993315;28;20089;-64
2023/11/17 11:31:20;;;;;;;2.00;1.70;;;;;;;-2.48;57.55;99560.34;5010970;28;20038;-62
2023/11/17 11:33:47;;;;;;;2.72;2.00;;;;;;;-2.35;57.27;99566.00;4993780;28;20538;-63
2023/11/17 11:36:13;;;;;;;3.13;2.20;;;;;;;-2.24;57.80;99554.53;4993454;28;20040;-63
2023/11/17 11:38:40;;;;;;;3.20;2.60;;;;;;;-2.13;57.56;99559.50;5009869;28;20072;-63